Airfield :
LOGIN :

Register | Disclaimer

   EN    FR    IT 

 










Legend :    VFR   Marginal VFR   IFR   Intensive IFR   Very Intensive IFR
Visi :
Ceiling :
>= 8 km
>= 3000ft
5 to 8 km
1000 to 3000 ft
1500m to 5 km
500 to 1000 ft
800 to 1500m
200 to 500 ft
< 800m
< 200 ft
Symbols :   Thunderstorms  Fog  Heavy snow  Heavy precipitations  Wind > 20 kt
SIGMETs :     Misc.  Thunderstorms  Icing  Turbulence  Mountain Waves  Volcanic Ashes







- Airport Elevation : -15 ft
- IATA code : RTM


EHRD - Rotterdam Zestienhoven

CURRENT METAR :
  • 220925Z AUTO 22011KT 190V270 9999 NSC 14/11 Q1018 NOSIG

EXPIRED METARs :
  • 220855Z AUTO 21010KT 9999 -RA FEW028 SCT038 14/11 Q1018 NOSIG
  • 220825Z AUTO 21009KT 190V250 9999 FEW029 SCT033 BKN040 14/11 Q1018 NOSIG
  • 220755Z AUTO 20012KT 170V230 9999 SCT030 BKN035 OVC041 13/11 Q1018 NOSIG
  • 220725Z AUTO 19009KT 9999 SCT031 BKN036 BKN041 14/10 Q1018 NOSIG
  • 220655Z AUTO 23006KT 9999 NSC 13/09 Q1018 NOSIG

TAF TAF EHRD
Valid from the 22 at 06:00 until the 23 at 12:00 UTC


220453Z 2206/2312 26010KT 9999 SCT030
BECMG 2208/2211 26014KT
PROB30
TEMPO 2209/2214 7000 -SHRA FEW025TCU
BECMG 2215/2218 20005KT 7000 RA FEW020 BKN030
BECMG 2300/2303 13003KT 9999 NSW
PROB30
TEMPO 2302/2306 7000 MIFG NSC
BECMG 2306/2309 04007KT 7000 RA
No reported NOTAMs for that airfield.



MET'MAP, your aeronautical weather chart ! - Copyright ORBIFLY December 2007 - Disclaimer

ORBIFLY MET'MAP TEAM :

Programming & Development : Alexandra Zaïnal
Concept & Development : Baudouin d'Aumeries
Co-Development & Prog : Marc-Olivier Méhu
Technical & hardware support : Manuel Goepfert

Contact : metmap@orbifly.com




SOURCES & CREDITS :

   NOAA